createdAt,value
2019-03-02T00:02:00.734Z,94724.4
2019-03-02T00:06:57.898Z,93940.1
2019-03-02T00:11:56.433Z,94729.8
2019-03-02T00:16:52.380Z,94664.7
2019-03-02T00:21:49.715Z,94663.9
2019-03-02T00:26:47.228Z,94640.9
2019-03-02T00:31:44.306Z,94668.8
2019-03-02T00:36:41.677Z,94671.6
2019-03-02T00:41:42.056Z,94678.8
2019-03-02T00:46:36.174Z,94662.2
2019-03-02T00:51:33.562Z,94655.3
2019-03-02T00:56:31.152Z,94646.5
2019-03-02T01:01:29.460Z,94654
2019-03-02T01:06:25.940Z,94652.4
2019-03-02T01:11:23.580Z,94655.8
2019-03-02T01:21:18.583Z,94631.7
2019-03-02T01:26:16.415Z,94637.3
2019-03-02T01:31:13.474Z,94641.1
2019-03-02T01:36:10.729Z,94642
2019-03-02T01:41:08.060Z,94631.8
2019-03-02T01:46:05.601Z,94629
2019-03-02T01:51:03.317Z,94626.9
2019-03-02T01:56:02.668Z,94631
2019-03-02T02:00:58.800Z,94694
2019-03-02T02:05:56.163Z,94617.9
2019-03-02T02:10:53.820Z,94619
2019-03-02T02:15:51.469Z,94611.6
2019-03-02T02:20:50.253Z,94623.8
2019-03-02T02:25:46.330Z,94624
2019-03-02T02:30:43.393Z,94635.4
2019-03-02T02:35:41.684Z,94643.7
2019-03-02T02:40:38.723Z,94713
2019-03-02T02:45:36.322Z,94647.4
2019-03-02T02:50:34.069Z,94653.2
2019-03-02T02:55:35.961Z,94651.6
2019-03-02T03:00:28.987Z,94647.4
2019-03-02T03:05:26.603Z,94653.9
2019-03-02T03:10:27.696Z,94640.5
2019-03-02T03:15:21.823Z,94644.9
2019-03-02T03:20:19.286Z,94648.1
2019-03-02T03:25:17.975Z,94637.9
2019-03-02T03:30:14.492Z,94636.8
2019-03-02T03:35:16.788Z,94625.6
2019-03-02T03:40:09.494Z,94639.5
2019-03-02T03:45:07.050Z,94649.9
2019-03-02T03:50:09.083Z,94655.5
2019-03-02T03:55:02.098Z,94655
2019-03-02T04:00:00.518Z,94654.1
2019-03-02T04:04:57.252Z,94657.7
2019-03-02T04:09:55.287Z,94655.5
2019-03-02T04:14:56.780Z,94650.5
2019-03-02T04:19:50.463Z,94648.5
2019-03-02T04:24:47.490Z,94665.3
2019-03-02T04:29:49.747Z,94676.2
2019-03-02T04:34:42.290Z,94676.9
2019-03-02T04:39:39.141Z,94683.6
2019-03-02T04:44:36.492Z,94693.9
2019-03-02T04:49:33.920Z,94697.3
2019-03-02T04:54:37.182Z,94702.3
2019-03-02T04:59:28.878Z,94703.3
2019-03-02T05:04:28.668Z,94703.3
2019-03-02T05:09:23.652Z,94717
2019-03-02T05:14:21.296Z,94714.2
2019-03-02T05:19:18.737Z,94713.8
2019-03-02T05:24:16.169Z,94721
2019-03-02T05:29:14.740Z,94726.1
2019-03-02T05:34:10.651Z,94683.3
2019-03-02T05:39:08.828Z,94802.7
2019-03-02T05:44:05.816Z,94732.9
2019-03-02T05:49:03.418Z,94743.3
2019-03-02T05:54:02.538Z,94739
2019-03-02T05:58:58.583Z,94736.2
2019-03-02T06:03:56.483Z,94812.7
2019-03-02T06:08:53.740Z,94757
2019-03-02T06:13:51.160Z,94759.1
2019-03-02T06:18:48.408Z,94777
2019-03-02T06:23:46.177Z,94777.6
2019-03-02T06:28:43.564Z,94769.8
2019-03-02T06:33:44.023Z,94786.7
2019-03-02T06:38:38.577Z,94792.3
2019-03-02T06:43:35.848Z,94792.2
2019-03-02T06:48:33.462Z,94862.2
2019-03-02T06:53:33.945Z,94811.6
2019-03-02T06:58:29.430Z,94818.4
2019-03-02T07:03:25.596Z,94793.1
2019-03-02T07:08:25.326Z,94890.4
2019-03-02T07:13:21.245Z,94819.3
2019-03-02T07:18:18.613Z,94826.7
2019-03-02T07:23:16.247Z,94900.4
2019-03-02T07:28:14.406Z,94826.8
2019-03-02T07:33:11.315Z,94818.9
2019-03-02T07:38:09.221Z,94887
2019-03-02T07:43:09.639Z,94823.8
2019-03-02T07:48:04.265Z,94804.8
2019-03-02T07:53:02.747Z,94901.7
2019-03-02T07:58:00.569Z,94909.3
2019-03-02T08:02:58.725Z,94906.1
2019-03-02T08:07:56.597Z,94913.6
2019-03-02T08:12:57.704Z,94922.8
2019-03-02T08:17:51.729Z,94856.4
2019-03-02T08:22:50.012Z,94922.7
2019-03-02T08:27:48.198Z,94914.2
2019-03-02T08:32:46.293Z,94916.3
2019-03-02T08:37:44.750Z,94879
2019-03-02T08:42:42.575Z,94842.4
2019-03-02T08:47:40.968Z,94848.3
2019-03-02T08:52:39.051Z,94909.3
2019-03-02T08:57:37.220Z,94905.5
2019-03-02T09:02:35.364Z,94897
2019-03-02T09:07:35.609Z,94897.4
2019-03-02T09:12:31.734Z,94888.1
2019-03-02T09:17:29.584Z,94898
2019-03-02T09:22:28.288Z,94882.2
2019-03-02T09:27:26.852Z,94950.8
2019-03-02T09:32:25.124Z,94883.2
2019-03-02T09:37:23.371Z,94895.6
2019-03-02T09:42:20.849Z,94822.5
2019-03-02T09:47:18.251Z,94850.7
2019-03-02T09:52:16.875Z,94876.3
2019-03-02T09:57:14.884Z,94933.3
2019-03-02T10:02:14.347Z,94810.6
2019-03-02T10:07:09.956Z,94877.8
2019-03-02T10:12:09.903Z,94813.4
2019-03-02T10:17:04.936Z,94811.2
2019-03-02T10:22:03.507Z,94899.3
2019-03-02T10:27:01.529Z,94922.8
2019-03-02T10:31:59.565Z,94945.7
2019-03-02T10:36:57.624Z,94895
2019-03-02T10:41:56.687Z,94818.8
2019-03-02T10:46:53.523Z,94941.3
2019-03-02T10:51:51.024Z,94818.3
2019-03-02T10:56:48.744Z,94921.2
2019-03-02T11:01:46.782Z,94892.6
2019-03-02T11:06:45.157Z,94873.2
2019-03-02T11:11:42.029Z,94811.3
2019-03-02T11:16:41.080Z,94815.9
2019-03-02T11:21:38.316Z,94872.1
2019-03-02T11:26:36.921Z,94882.7
2019-03-02T11:31:35.375Z,94873.6
2019-03-02T11:36:32.776Z,94853.5
2019-03-02T11:41:30.773Z,94889.2
2019-03-02T11:46:28.491Z,94867.9
2019-03-02T11:51:27.978Z,94888.4
2019-03-02T11:56:27.145Z,94887.7
2019-03-02T12:01:22.345Z,94820.9
2019-03-02T12:06:19.831Z,94848.6
2019-03-02T12:11:17.401Z,94809.4
2019-03-02T12:16:14.987Z,94873.5
2019-03-02T12:21:13.348Z,94810.8
2019-03-02T12:26:11.983Z,94798.9
2019-03-02T12:31:09.592Z,94797.9
2019-03-02T12:36:07.737Z,94847.3
2019-03-02T12:41:05.519Z,94807.8
2019-03-02T12:46:04.968Z,94959
2019-03-02T12:51:02.803Z,94808
2019-03-02T12:55:58.823Z,94876.5
2019-03-02T13:00:56.477Z,94818
2019-03-02T13:05:57.461Z,94900
2019-03-02T13:10:53.360Z,94878.2
2019-03-02T13:15:49.477Z,94885.3
2019-03-02T13:20:47.225Z,94881.3
2019-03-02T13:25:45.103Z,94828.5
2019-03-02T13:30:42.790Z,94827.8
2019-03-02T13:35:40.740Z,94810
2019-03-02T13:40:39.320Z,94897.9
2019-03-02T13:45:37.358Z,94910.4
2019-03-02T13:50:35.281Z,94836.7
2019-03-02T13:55:33.298Z,94836.9
2019-03-02T14:00:31.175Z,94259.6
2019-03-02T14:05:28.643Z,94891.1
2019-03-02T14:10:26.489Z,94893.6
2019-03-02T14:15:24.427Z,94910.4
2019-03-02T14:20:24.728Z,94843.3
2019-03-02T14:25:22.739Z,94908.7
2019-03-02T14:30:16.995Z,94909
2019-03-02T14:35:16.321Z,94853.6
2019-03-02T14:40:14.559Z,94930
2019-03-02T14:45:10.775Z,94930.3
2019-03-02T14:50:08.158Z,94939.9
2019-03-02T14:55:04.728Z,94934.4
2019-03-02T15:00:02.126Z,94939
2019-03-02T15:04:59.259Z,94947.5
2019-03-02T15:09:56.654Z,94958.7
2019-03-02T15:14:54.176Z,94959.6
2019-03-02T15:19:57.173Z,94897.5
2019-03-02T15:24:52.936Z,95016
2019-03-02T15:29:50.255Z,94964.8
2019-03-02T15:34:49.530Z,94978.7
2019-03-02T15:39:44.603Z,94913.1
2019-03-02T15:44:42.868Z,95011.9
2019-03-02T15:49:41.429Z,94992.9
2019-03-02T15:54:37.565Z,94930.5
2019-03-02T15:59:35.949Z,95006.3
2019-03-02T16:04:35.264Z,95008.8
2019-03-02T16:09:30.407Z,94946.2
2019-03-02T16:14:28.877Z,94954
2019-03-02T16:19:29.051Z,94955.9
2019-03-02T16:24:23.723Z,94975.4
2019-03-02T16:29:21.203Z,95056.2
2019-03-02T16:34:19.682Z,95076.1
2019-03-02T16:39:16.923Z,95082.3
2019-03-02T16:44:14.333Z,95022.9
2019-03-02T16:49:12.521Z,95104.7
2019-03-02T16:54:10.296Z,95105.6
2019-03-02T16:59:07.470Z,95119.3
2019-03-02T17:04:04.651Z,95062.7
2019-03-02T17:09:02.640Z,95072.9
2019-03-02T17:14:00.114Z,95152.1
2019-03-02T17:18:57.787Z,95151.8
2019-03-02T17:23:56.283Z,95156.7
2019-03-02T17:28:53.429Z,95098.9
2019-03-02T17:33:50.527Z,95103.8
2019-03-02T17:38:51.203Z,95110.4
2019-03-02T17:43:46.596Z,95125.8
2019-03-02T17:48:42.118Z,95126.4
2019-03-02T17:53:40.785Z,95135.9
2019-03-02T17:58:38.038Z,95140
2019-03-02T18:03:35.012Z,95154.9
2019-03-02T18:08:32.600Z,95218
2019-03-02T18:13:35.388Z,95223
2019-03-02T18:18:28.069Z,95157.4
2019-03-02T18:23:26.000Z,95307.4
2019-03-02T18:28:24.500Z,95235
2019-03-02T18:33:22.382Z,95232.6
2019-03-02T18:38:20.268Z,95237.3
2019-03-02T18:43:17.621Z,95172.4
2019-03-02T18:48:15.547Z,95245.1
2019-03-02T18:53:13.623Z,95246.1
2019-03-02T18:58:11.183Z,95251.2
2019-03-02T19:03:08.346Z,95187.3
2019-03-02T19:08:05.773Z,95195.8
2019-03-02T19:13:04.921Z,95192.5
2019-03-02T19:18:01.409Z,95201.7
2019-03-02T19:22:58.933Z,95202.1
2019-03-02T19:27:56.269Z,95217.4
2019-03-02T19:32:53.467Z,95221.3
2019-03-02T19:37:50.848Z,95225.5
2019-03-02T19:42:48.859Z,95305.7
2019-03-02T19:47:46.760Z,95311.9
2019-03-02T19:52:45.087Z,95246
2019-03-02T19:57:42.786Z,95325.1
2019-03-02T20:02:40.862Z,95327.1
2019-03-02T20:07:38.125Z,95261.6
2019-03-02T20:12:36.065Z,95340.2
2019-03-02T20:17:33.430Z,95274.3
2019-03-02T20:22:31.366Z,95275
2019-03-02T20:27:29.141Z,95351.7
2019-03-02T20:32:27.106Z,95357.6
2019-03-02T20:37:25.573Z,95278.4
2019-03-02T20:42:23.309Z,95369.2
2019-03-02T20:47:21.140Z,95302
2019-03-02T20:52:18.575Z,95372.9
2019-03-02T20:57:15.901Z,95304.9
2019-03-02T21:02:13.194Z,95306.8
2019-03-02T21:07:15.174Z,95375.4
2019-03-02T21:12:11.677Z,95302.1
2019-03-02T21:17:08.802Z,95316.2
2019-03-02T21:22:06.335Z,95317.5
2019-03-02T21:27:04.328Z,95390.3
2019-03-02T21:32:01.891Z,95389.9
2019-03-02T21:36:58.956Z,95318.3
2019-03-02T21:41:56.383Z,95311.3
2019-03-02T21:46:53.998Z,95387.8
2019-03-02T21:51:51.207Z,95319.1
2019-03-02T21:56:49.408Z,95400.7
2019-03-02T22:01:46.803Z,95337.1
2019-03-02T22:06:44.079Z,95338.9
2019-03-02T22:11:42.241Z,95305.6
2019-03-02T22:16:40.030Z,95417.3
2019-03-02T22:21:37.862Z,95421.2
2019-03-02T22:26:36.276Z,95349.8
2019-03-02T22:31:33.444Z,95343
2019-03-02T22:36:30.746Z,95346.2
2019-03-02T22:41:27.884Z,95350.5
2019-03-02T22:46:25.313Z,95344.6
2019-03-02T22:51:23.125Z,95416.2
2019-03-02T22:56:20.994Z,95427.2
2019-03-02T23:01:18.456Z,95349.3
2019-03-02T23:06:16.025Z,95352.8
2019-03-02T23:11:13.025Z,95358.3
2019-03-02T23:16:10.544Z,95357.9
2019-03-02T23:21:08.365Z,95431.8
2019-03-02T23:26:06.649Z,95359.1
2019-03-02T23:31:04.457Z,95434.1
2019-03-02T23:36:03.162Z,95431.9
2019-03-02T23:41:00.859Z,95440.7
2019-03-02T23:45:58.761Z,95434.5
2019-03-02T23:50:56.501Z,95445.4
2019-03-02T23:55:54.913Z,95377.8
